This is the latest recevied weather packets stored in our database for station/object KG5WBN. If no packets are shown the sender has not sent any weather packets the latest 10 day(s).
| Time | Temp. | Humidity | Pressure | Rain* | Wind** | Luminosity | Snow |
|---|---|---|---|---|---|---|---|
| 1787505891 | 34.44° C | 42% | 1015.6 hPa | 0 mm | - | 320 W/m² | - |
| 1787505587 | 34.44° C | 49% | 1015.6 hPa | 0 mm | - | 338 W/m² | - |
| 1787505286 | 34.44° C | 49% | 1015.9 hPa | 0 mm | - | 337 W/m² | - |
| 1787504981 | 34.44° C | 42% | 1015.9 hPa | 0 mm | - | 335 W/m² | - |
| 1787504677 | 34.44° C | 52% | 1015.6 hPa | 0 mm | - | 333 W/m² | - |
| 1787504372 | 34.44° C | 52% | 1015.9 hPa | 0 mm | - | 330 W/m² | - |
| 1787504068 | 34.44° C | 52% | 1015.9 hPa | 0 mm | - | 325 W/m² | - |
| 1787503763 | 34.44° C | 53% | 1015.9 hPa | 0 mm | - | 321 W/m² | - |
| 1787503459 | 33.89° C | 54% | 1016.3 hPa | 0 mm | - | 318 W/m² | - |
| 1787503155 | 33.89° C | 53% | 1015.9 hPa | 0 mm | - | 283 W/m² | - |
| 1787502851 | 33.89° C | 54% | 1016.3 hPa | 0 mm | - | 312 W/m² | - |
| 1787502551 | 33.89° C | 53% | 1016.3 hPa | 0 mm | - | 309 W/m² | - |
| 1787502245 | 33.33° C | 53% | 1016.3 hPa | 0 mm | - | 305 W/m² | - |
| 1787501941 | 33.89° C | 53% | 1016.3 hPa | 0 mm | - | 303 W/m² | - |
| 1787501637 | 33.89° C | 52% | 1016.6 hPa | 0 mm | - | 303 W/m² | - |
| 1787501332 | 34.44° C | 52% | 1016.3 hPa | 0 mm | - | 299 W/m² | - |
| 1787501029 | 33.89° C | 53% | 1016.6 hPa | 0 mm | - | 296 W/m² | - |
| 1787500724 | 33.89° C | 54% | 1016.6 hPa | 0 mm | - | 293 W/m² | - |
| 1787500419 | 34.44° C | 53% | 1016.3 hPa | 0 mm | - | 292 W/m² | - |
| 1787500119 | 33.33° C | 54% | 1016.3 hPa | 0 mm | - | 254 W/m² | - |
| 1787499813 | 33.89° C | 54% | 1016.3 hPa | 0 mm | - | 266 W/m² | - |
| 1787499508 | 34.44° C | 54% | 1016.3 hPa | 0 mm | - | 282 W/m² | - |
| 1787499204 | 33.89° C | 55% | 1016.3 hPa | 0 mm | - | 278 W/m² | - |
| 1787498900 | 32.78° C | 58% | 1016.3 hPa | 0 mm | - | 255 W/m² | - |
| 1787498598 | 32.78° C | 57% | 1016.3 hPa | 0 mm | - | 254 W/m² | - |
* Rain latest hour (hover to see other rain measurements)
** Current wind speed in m/s (hover to see current wind gust speed)